sensor_id;sensor_type;location;lat;lon;timestamp;P1;durP1;ratioP1;P2;durP2;ratioP2
13731;SDS011;6937;56.096;12.664;2023-01-10T00:02:17;13.88;;;6.50;;
13731;SDS011;6937;56.096;12.664;2023-01-10T00:04:42;14.15;;;6.60;;
13731;SDS011;6937;56.096;12.664;2023-01-10T00:07:08;14.98;;;6.55;;
13731;SDS011;6937;56.096;12.664;2023-01-10T00:09:33;12.27;;;6.47;;
13731;SDS011;6937;56.096;12.664;2023-01-10T00:11:58;11.25;;;6.45;;
13731;SDS011;6937;56.096;12.664;2023-01-10T00:14:42;15.40;;;6.57;;
13731;SDS011;6937;56.096;12.664;2023-01-10T00:17:08;13.02;;;6.45;;
13731;SDS011;6937;56.096;12.664;2023-01-10T00:19:33;13.40;;;6.55;;
13731;SDS011;6937;56.096;12.664;2023-01-10T00:21:58;11.07;;;6.45;;
13731;SDS011;6937;56.096;12.664;2023-01-10T00:24:33;12.48;;;6.75;;
13731;SDS011;6937;56.096;12.664;2023-01-10T00:26:58;15.38;;;7.20;;
13731;SDS011;6937;56.096;12.664;2023-01-10T00:29:27;14.48;;;6.70;;
13731;SDS011;6937;56.096;12.664;2023-01-10T00:31:55;14.52;;;6.10;;
13731;SDS011;6937;56.096;12.664;2023-01-10T00:34:21;13.63;;;6.50;;
13731;SDS011;6937;56.096;12.664;2023-01-10T00:36:48;14.80;;;7.15;;
13731;SDS011;6937;56.096;12.664;2023-01-10T00:39:13;15.70;;;7.13;;
13731;SDS011;6937;56.096;12.664;2023-01-10T00:41:40;14.90;;;7.10;;
13731;SDS011;6937;56.096;12.664;2023-01-10T00:44:24;14.48;;;6.60;;
13731;SDS011;6937;56.096;12.664;2023-01-10T00:46:50;12.77;;;7.03;;
13731;SDS011;6937;56.096;12.664;2023-01-10T00:49:16;15.88;;;7.00;;
13731;SDS011;6937;56.096;12.664;2023-01-10T00:51:42;14.30;;;6.75;;
13731;SDS011;6937;56.096;12.664;2023-01-10T00:54:08;16.10;;;7.70;;
13731;SDS011;6937;56.096;12.664;2023-01-10T00:56:34;10.93;;;6.65;;
13731;SDS011;6937;56.096;12.664;2023-01-10T00:59:00;13.60;;;6.63;;
13731;SDS011;6937;56.096;12.664;2023-01-10T01:01:25;14.82;;;7.15;;
13731;SDS011;6937;56.096;12.664;2023-01-10T01:03:51;14.38;;;6.88;;
13731;SDS011;6937;56.096;12.664;2023-01-10T01:06:16;16.25;;;7.32;;
13731;SDS011;6937;56.096;12.664;2023-01-10T01:08:42;16.80;;;8.00;;
13731;SDS011;6937;56.096;12.664;2023-01-10T01:11:07;13.93;;;7.50;;
13731;SDS011;6937;56.096;12.664;2023-01-10T01:13:32;17.00;;;8.13;;
13731;SDS011;6937;56.096;12.664;2023-01-10T01:15:58;11.95;;;7.40;;
13731;SDS011;6937;56.096;12.664;2023-01-10T01:18:24;16.17;;;8.30;;
13731;SDS011;6937;56.096;12.664;2023-01-10T01:20:53;15.35;;;8.40;;
13731;SDS011;6937;56.096;12.664;2023-01-10T01:23:20;14.35;;;8.25;;
13731;SDS011;6937;56.096;12.664;2023-01-10T01:25:50;15.95;;;7.65;;
13731;SDS011;6937;56.096;12.664;2023-01-10T01:28:16;13.20;;;7.45;;
13731;SDS011;6937;56.096;12.664;2023-01-10T01:30:41;17.40;;;8.02;;
13731;SDS011;6937;56.096;12.664;2023-01-10T01:33:07;16.33;;;7.85;;
13731;SDS011;6937;56.096;12.664;2023-01-10T01:35:32;14.30;;;7.90;;
13731;SDS011;6937;56.096;12.664;2023-01-10T01:37:57;12.63;;;7.88;;
13731;SDS011;6937;56.096;12.664;2023-01-10T01:40:23;11.88;;;7.80;;
13731;SDS011;6937;56.096;12.664;2023-01-10T01:42:48;17.00;;;8.13;;
13731;SDS011;6937;56.096;12.664;2023-01-10T01:47:48;14.82;;;8.98;;
13731;SDS011;6937;56.096;12.664;2023-01-10T01:50:20;18.17;;;8.70;;
13731;SDS011;6937;56.096;12.664;2023-01-10T01:52:49;14.32;;;8.63;;
13731;SDS011;6937;56.096;12.664;2023-01-10T01:55:18;15.48;;;9.70;;
13731;SDS011;6937;56.096;12.664;2023-01-10T01:57:45;18.58;;;9.10;;
13731;SDS011;6937;56.096;12.664;2023-01-10T02:00:13;15.50;;;8.85;;
13731;SDS011;6937;56.096;12.664;2023-01-10T02:02:41;13.88;;;9.60;;
13731;SDS011;6937;56.096;12.664;2023-01-10T02:05:12;14.80;;;10.40;;
13731;SDS011;6937;56.096;12.664;2023-01-10T02:07:41;16.42;;;9.60;;
13731;SDS011;6937;56.096;12.664;2023-01-10T02:10:14;14.23;;;9.68;;
13731;SDS011;6937;56.096;12.664;2023-01-10T02:12:41;16.70;;;9.05;;
13731;SDS011;6937;56.096;12.664;2023-01-10T02:15:09;15.00;;;9.85;;
13731;SDS011;6937;56.096;12.664;2023-01-10T02:17:35;16.38;;;9.77;;
13731;SDS011;6937;56.096;12.664;2023-01-10T02:20:05;15.25;;;10.77;;
13731;SDS011;6937;56.096;12.664;2023-01-10T02:25:52;19.48;;;10.82;;
13731;SDS011;6937;56.096;12.664;2023-01-10T02:28:31;17.50;;;10.27;;
13731;SDS011;6937;56.096;12.664;2023-01-10T02:34:23;15.80;;;9.43;;
13731;SDS011;6937;56.096;12.664;2023-01-10T02:42:54;18.95;;;10.60;;
13731;SDS011;6937;56.096;12.664;2023-01-10T02:45:35;21.50;;;10.18;;
13731;SDS011;6937;56.096;12.664;2023-01-10T02:48:05;16.85;;;10.02;;
13731;SDS011;6937;56.096;12.664;2023-01-10T02:53:06;18.33;;;11.23;;
13731;SDS011;6937;56.096;12.664;2023-01-10T02:55:54;18.08;;;11.27;;
13731;SDS011;6937;56.096;12.664;2023-01-10T02:59:06;15.85;;;9.88;;
13731;SDS011;6937;56.096;12.664;2023-01-10T03:09:31;14.52;;;10.07;;
13731;SDS011;6937;56.096;12.664;2023-01-10T03:12:03;14.32;;;9.10;;
13731;SDS011;6937;56.096;12.664;2023-01-10T03:14:35;14.98;;;10.32;;
13731;SDS011;6937;56.096;12.664;2023-01-10T03:17:05;19.33;;;10.30;;
13731;SDS011;6937;56.096;12.664;2023-01-10T03:19:35;16.63;;;10.73;;
13731;SDS011;6937;56.096;12.664;2023-01-10T03:22:06;20.15;;;11.45;;
13731;SDS011;6937;56.096;12.664;2023-01-10T03:24:35;13.50;;;10.30;;
13731;SDS011;6937;56.096;12.664;2023-01-10T03:27:08;16.17;;;10.90;;
13731;SDS011;6937;56.096;12.664;2023-01-10T03:30:25;16.88;;;11.45;;
13731;SDS011;6937;56.096;12.664;2023-01-10T03:32:34;22.17;;;12.73;;
13731;SDS011;6937;56.096;12.664;2023-01-10T03:35:00;22.15;;;13.13;;
13731;SDS011;6937;56.096;12.664;2023-01-10T03:37:34;21.58;;;13.20;;
13731;SDS011;6937;56.096;12.664;2023-01-10T03:43:01;20.70;;;12.77;;
13731;SDS011;6937;56.096;12.664;2023-01-10T03:45:54;20.40;;;12.80;;
13731;SDS011;6937;56.096;12.664;2023-01-10T03:48:25;21.92;;;13.85;;
13731;SDS011;6937;56.096;12.664;2023-01-10T03:50:56;20.67;;;14.25;;
13731;SDS011;6937;56.096;12.664;2023-01-10T03:53:24;24.48;;;14.93;;
13731;SDS011;6937;56.096;12.664;2023-01-10T03:55:50;29.80;;;14.82;;
13731;SDS011;6937;56.096;12.664;2023-01-10T03:58:16;29.02;;;15.98;;
13731;SDS011;6937;56.096;12.664;2023-01-10T04:00:45;28.08;;;15.27;;
13731;SDS011;6937;56.096;12.664;2023-01-10T04:03:11;21.13;;;13.80;;
13731;SDS011;6937;56.096;12.664;2023-01-10T04:05:36;27.33;;;16.67;;
13731;SDS011;6937;56.096;12.664;2023-01-10T04:08:02;27.15;;;16.70;;
13731;SDS011;6937;56.096;12.664;2023-01-10T04:10:27;25.58;;;15.65;;
13731;SDS011;6937;56.096;12.664;2023-01-10T04:12:53;25.45;;;16.00;;
13731;SDS011;6937;56.096;12.664;2023-01-10T04:15:19;24.77;;;16.08;;
13731;SDS011;6937;56.096;12.664;2023-01-10T04:17:46;28.58;;;14.82;;
13731;SDS011;6937;56.096;12.664;2023-01-10T04:20:12;25.45;;;16.30;;
13731;SDS011;6937;56.096;12.664;2023-01-10T04:22:38;23.67;;;16.85;;
13731;SDS011;6937;56.096;12.664;2023-01-10T04:25:03;27.92;;;16.40;;
13731;SDS011;6937;56.096;12.664;2023-01-10T04:27:29;22.55;;;15.88;;
13731;SDS011;6937;56.096;12.664;2023-01-10T04:29:54;28.27;;;16.10;;
13731;SDS011;6937;56.096;12.664;2023-01-10T04:32:20;25.67;;;15.38;;
13731;SDS011;6937;56.096;12.664;2023-01-10T04:34:45;27.70;;;17.45;;
13731;SDS011;6937;56.096;12.664;2023-01-10T04:37:10;24.05;;;15.77;;
13731;SDS011;6937;56.096;12.664;2023-01-10T04:39:36;26.75;;;16.15;;
13731;SDS011;6937;56.096;12.664;2023-01-10T04:42:01;29.13;;;15.63;;
13731;SDS011;6937;56.096;12.664;2023-01-10T04:44:26;24.77;;;16.48;;
13731;SDS011;6937;56.096;12.664;2023-01-10T04:46:52;25.50;;;15.27;;
13731;SDS011;6937;56.096;12.664;2023-01-10T04:49:17;25.92;;;15.45;;
13731;SDS011;6937;56.096;12.664;2023-01-10T04:51:42;25.20;;;15.73;;
13731;SDS011;6937;56.096;12.664;2023-01-10T04:54:08;27.23;;;15.70;;
13731;SDS011;6937;56.096;12.664;2023-01-10T04:56:33;33.25;;;17.35;;
13731;SDS011;6937;56.096;12.664;2023-01-10T04:58:59;33.53;;;17.85;;
13731;SDS011;6937;56.096;12.664;2023-01-10T05:01:24;31.33;;;19.30;;
13731;SDS011;6937;56.096;12.664;2023-01-10T05:03:51;32.30;;;18.98;;
13731;SDS011;6937;56.096;12.664;2023-01-10T05:06:18;30.60;;;18.80;;
13731;SDS011;6937;56.096;12.664;2023-01-10T05:08:44;30.15;;;18.67;;
13731;SDS011;6937;56.096;12.664;2023-01-10T05:11:09;28.67;;;17.70;;
13731;SDS011;6937;56.096;12.664;2023-01-10T05:13:35;40.20;;;21.08;;
13731;SDS011;6937;56.096;12.664;2023-01-10T05:16:01;35.53;;;19.38;;
13731;SDS011;6937;56.096;12.664;2023-01-10T05:18:27;38.97;;;19.67;;
13731;SDS011;6937;56.096;12.664;2023-01-10T05:20:59;34.50;;;19.23;;
13731;SDS011;6937;56.096;12.664;2023-01-10T05:23:26;35.40;;;19.25;;
13731;SDS011;6937;56.096;12.664;2023-01-10T05:25:52;31.45;;;19.33;;
13731;SDS011;6937;56.096;12.664;2023-01-10T05:28:18;36.58;;;18.40;;
13731;SDS011;6937;56.096;12.664;2023-01-10T05:30:43;33.72;;;19.38;;
13731;SDS011;6937;56.096;12.664;2023-01-10T05:33:08;36.80;;;19.25;;
13731;SDS011;6937;56.096;12.664;2023-01-10T05:35:34;32.63;;;19.25;;
13731;SDS011;6937;56.096;12.664;2023-01-10T05:37:59;33.22;;;19.05;;
13731;SDS011;6937;56.096;12.664;2023-01-10T05:40:25;27.85;;;18.38;;
13731;SDS011;6937;56.096;12.664;2023-01-10T05:42:50;33.33;;;18.88;;
13731;SDS011;6937;56.096;12.664;2023-01-10T05:45:15;34.53;;;18.65;;
13731;SDS011;6937;56.096;12.664;2023-01-10T05:47:41;35.00;;;18.85;;
13731;SDS011;6937;56.096;12.664;2023-01-10T05:50:06;33.95;;;18.35;;
13731;SDS011;6937;56.096;12.664;2023-01-10T05:52:32;31.80;;;17.20;;
13731;SDS011;6937;56.096;12.664;2023-01-10T05:54:57;31.27;;;18.40;;
13731;SDS011;6937;56.096;12.664;2023-01-10T05:57:23;27.83;;;17.00;;
13731;SDS011;6937;56.096;12.664;2023-01-10T05:59:49;31.25;;;17.65;;
13731;SDS011;6937;56.096;12.664;2023-01-10T06:02:15;24.85;;;15.90;;
13731;SDS011;6937;56.096;12.664;2023-01-10T06:04:40;27.42;;;16.95;;
13731;SDS011;6937;56.096;12.664;2023-01-10T06:07:05;27.40;;;16.38;;
13731;SDS011;6937;56.096;12.664;2023-01-10T06:09:31;29.80;;;17.35;;
13731;SDS011;6937;56.096;12.664;2023-01-10T06:11:56;24.88;;;17.15;;
13731;SDS011;6937;56.096;12.664;2023-01-10T06:14:22;24.60;;;16.13;;
13731;SDS011;6937;56.096;12.664;2023-01-10T06:16:47;28.85;;;16.80;;
13731;SDS011;6937;56.096;12.664;2023-01-10T06:19:13;28.63;;;15.88;;
13731;SDS011;6937;56.096;12.664;2023-01-10T06:21:38;26.42;;;14.75;;
13731;SDS011;6937;56.096;12.664;2023-01-10T06:24:03;24.75;;;14.20;;
13731;SDS011;6937;56.096;12.664;2023-01-10T06:26:29;24.83;;;14.23;;
13731;SDS011;6937;56.096;12.664;2023-01-10T06:28:54;24.45;;;14.32;;
13731;SDS011;6937;56.096;12.664;2023-01-10T06:31:20;24.70;;;13.90;;
13731;SDS011;6937;56.096;12.664;2023-01-10T06:33:45;27.05;;;14.10;;
13731;SDS011;6937;56.096;12.664;2023-01-10T06:36:14;23.08;;;13.02;;
13731;SDS011;6937;56.096;12.664;2023-01-10T06:38:40;22.58;;;13.25;;
13731;SDS011;6937;56.096;12.664;2023-01-10T06:41:05;26.42;;;12.50;;
13731;SDS011;6937;56.096;12.664;2023-01-10T06:43:43;23.65;;;13.25;;
13731;SDS011;6937;56.096;12.664;2023-01-10T06:46:10;23.25;;;13.05;;
13731;SDS011;6937;56.096;12.664;2023-01-10T06:48:36;25.85;;;13.65;;
13731;SDS011;6937;56.096;12.664;2023-01-10T06:51:03;21.83;;;13.10;;
13731;SDS011;6937;56.096;12.664;2023-01-10T06:53:29;20.80;;;12.93;;
13731;SDS011;6937;56.096;12.664;2023-01-10T06:55:56;22.55;;;12.73;;
13731;SDS011;6937;56.096;12.664;2023-01-10T06:58:28;24.60;;;11.55;;
13731;SDS011;6937;56.096;12.664;2023-01-10T07:00:53;22.70;;;11.90;;
13731;SDS011;6937;56.096;12.664;2023-01-10T07:03:19;22.65;;;11.40;;
13731;SDS011;6937;56.096;12.664;2023-01-10T07:05:44;22.85;;;11.48;;
13731;SDS011;6937;56.096;12.664;2023-01-10T07:08:09;22.27;;;11.10;;
13731;SDS011;6937;56.096;12.664;2023-01-10T07:10:35;22.88;;;11.07;;
13731;SDS011;6937;56.096;12.664;2023-01-10T07:13:00;21.63;;;11.50;;
13731;SDS011;6937;56.096;12.664;2023-01-10T07:15:26;22.13;;;10.88;;
13731;SDS011;6937;56.096;12.664;2023-01-10T07:17:52;19.20;;;10.65;;
13731;SDS011;6937;56.096;12.664;2023-01-10T07:20:20;24.40;;;11.05;;
13731;SDS011;6937;56.096;12.664;2023-01-10T07:22:51;17.30;;;10.52;;
13731;SDS011;6937;56.096;12.664;2023-01-10T07:25:18;18.10;;;10.48;;
13731;SDS011;6937;56.096;12.664;2023-01-10T07:27:43;20.65;;;10.85;;
13731;SDS011;6937;56.096;12.664;2023-01-10T07:30:09;20.85;;;10.65;;
13731;SDS011;6937;56.096;12.664;2023-01-10T07:32:35;17.25;;;10.40;;
13731;SDS011;6937;56.096;12.664;2023-01-10T07:35:00;23.77;;;11.02;;
13731;SDS011;6937;56.096;12.664;2023-01-10T07:37:26;18.80;;;10.63;;
13731;SDS011;6937;56.096;12.664;2023-01-10T07:39:51;18.70;;;10.70;;
13731;SDS011;6937;56.096;12.664;2023-01-10T07:42:16;15.38;;;10.77;;
13731;SDS011;6937;56.096;12.664;2023-01-10T07:44:42;19.20;;;9.98;;
13731;SDS011;6937;56.096;12.664;2023-01-10T07:47:07;20.80;;;10.73;;
13731;SDS011;6937;56.096;12.664;2023-01-10T07:49:32;18.13;;;11.05;;
13731;SDS011;6937;56.096;12.664;2023-01-10T07:51:58;20.73;;;10.52;;
13731;SDS011;6937;56.096;12.664;2023-01-10T07:54:23;19.33;;;9.98;;
13731;SDS011;6937;56.096;12.664;2023-01-10T07:56:48;18.23;;;10.52;;
13731;SDS011;6937;56.096;12.664;2023-01-10T07:59:14;17.20;;;9.55;;
13731;SDS011;6937;56.096;12.664;2023-01-10T08:01:39;19.70;;;9.82;;
13731;SDS011;6937;56.096;12.664;2023-01-10T08:04:05;16.92;;;8.93;;
13731;SDS011;6937;56.096;12.664;2023-01-10T08:06:30;17.42;;;9.45;;
13731;SDS011;6937;56.096;12.664;2023-01-10T08:08:56;17.60;;;8.38;;
13731;SDS011;6937;56.096;12.664;2023-01-10T08:11:22;16.67;;;8.40;;
13731;SDS011;6937;56.096;12.664;2023-01-10T08:13:47;20.58;;;8.25;;
13731;SDS011;6937;56.096;12.664;2023-01-10T08:16:13;14.35;;;7.32;;
13731;SDS011;6937;56.096;12.664;2023-01-10T08:18:39;13.98;;;6.93;;
13731;SDS011;6937;56.096;12.664;2023-01-10T08:21:07;17.50;;;6.97;;
13731;SDS011;6937;56.096;12.664;2023-01-10T08:23:33;17.85;;;7.18;;
13731;SDS011;6937;56.096;12.664;2023-01-10T08:25:59;16.50;;;7.03;;
13731;SDS011;6937;56.096;12.664;2023-01-10T08:28:25;15.35;;;6.90;;
13731;SDS011;6937;56.096;12.664;2023-01-10T08:30:50;11.50;;;6.85;;
13731;SDS011;6937;56.096;12.664;2023-01-10T08:33:19;16.50;;;6.68;;
13731;SDS011;6937;56.096;12.664;2023-01-10T08:35:45;14.35;;;6.45;;
13731;SDS011;6937;56.096;12.664;2023-01-10T08:38:10;16.55;;;5.82;;
13731;SDS011;6937;56.096;12.664;2023-01-10T08:40:36;11.30;;;5.85;;
13731;SDS011;6937;56.096;12.664;2023-01-10T08:43:03;15.32;;;6.38;;
13731;SDS011;6937;56.096;12.664;2023-01-10T08:45:33;12.60;;;5.53;;
13731;SDS011;6937;56.096;12.664;2023-01-10T08:47:59;11.50;;;5.25;;
13731;SDS011;6937;56.096;12.664;2023-01-10T08:50:25;15.20;;;5.13;;
13731;SDS011;6937;56.096;12.664;2023-01-10T08:52:51;16.17;;;5.13;;
13731;SDS011;6937;56.096;12.664;2023-01-10T08:55:17;11.52;;;4.38;;
13731;SDS011;6937;56.096;12.664;2023-01-10T08:57:43;13.82;;;4.15;;
13731;SDS011;6937;56.096;12.664;2023-01-10T09:00:09;11.77;;;3.88;;
13731;SDS011;6937;56.096;12.664;2023-01-10T09:02:36;11.90;;;4.07;;
13731;SDS011;6937;56.096;12.664;2023-01-10T09:05:02;9.15;;;3.88;;
13731;SDS011;6937;56.096;12.664;2023-01-10T09:07:28;13.10;;;4.40;;
13731;SDS011;6937;56.096;12.664;2023-01-10T09:09:53;12.70;;;4.18;;
13731;SDS011;6937;56.096;12.664;2023-01-10T09:12:19;15.10;;;4.28;;
13731;SDS011;6937;56.096;12.664;2023-01-10T09:15:03;11.75;;;3.80;;
13731;SDS011;6937;56.096;12.664;2023-01-10T09:17:30;11.55;;;4.30;;
13731;SDS011;6937;56.096;12.664;2023-01-10T09:19:56;14.07;;;4.40;;
13731;SDS011;6937;56.096;12.664;2023-01-10T09:22:21;14.27;;;4.72;;
13731;SDS011;6937;56.096;12.664;2023-01-10T09:24:47;15.00;;;4.75;;
13731;SDS011;6937;56.096;12.664;2023-01-10T09:27:13;12.43;;;4.22;;
13731;SDS011;6937;56.096;12.664;2023-01-10T09:29:38;15.57;;;4.63;;
13731;SDS011;6937;56.096;12.664;2023-01-10T09:32:04;15.80;;;4.43;;
13731;SDS011;6937;56.096;12.664;2023-01-10T09:34:29;15.98;;;4.07;;
13731;SDS011;6937;56.096;12.664;2023-01-10T09:36:55;11.23;;;3.75;;
13731;SDS011;6937;56.096;12.664;2023-01-10T09:39:20;11.95;;;4.03;;
13731;SDS011;6937;56.096;12.664;2023-01-10T09:42:02;14.95;;;3.85;;
13731;SDS011;6937;56.096;12.664;2023-01-10T09:47:23;12.13;;;3.20;;
13731;SDS011;6937;56.096;12.664;2023-01-10T09:52:57;12.80;;;3.38;;
13731;SDS011;6937;56.096;12.664;2023-01-10T09:55:31;16.20;;;4.20;;
13731;SDS011;6937;56.096;12.664;2023-01-10T09:58:00;12.27;;;3.25;;
13731;SDS011;6937;56.096;12.664;2023-01-10T10:00:35;15.20;;;3.60;;
13731;SDS011;6937;56.096;12.664;2023-01-10T10:03:05;12.07;;;3.47;;
13731;SDS011;6937;56.096;12.664;2023-01-10T10:05:57;13.45;;;3.28;;
13731;SDS011;6937;56.096;12.664;2023-01-10T10:08:22;17.33;;;4.05;;
13731;SDS011;6937;56.096;12.664;2023-01-10T10:22:28;15.48;;;3.90;;
13731;SDS011;6937;56.096;12.664;2023-01-10T10:30:40;17.75;;;3.42;;
13731;SDS011;6937;56.096;12.664;2023-01-10T10:33:41;14.00;;;3.50;;
13731;SDS011;6937;56.096;12.664;2023-01-10T10:39:20;14.65;;;3.28;;
13731;SDS011;6937;56.096;12.664;2023-01-10T10:41:50;13.88;;;3.78;;
13731;SDS011;6937;56.096;12.664;2023-01-10T10:46:56;17.55;;;3.20;;
13731;SDS011;6937;56.096;12.664;2023-01-10T10:49:29;14.40;;;3.40;;
13731;SDS011;6937;56.096;12.664;2023-01-10T10:52:00;15.00;;;3.05;;
13731;SDS011;6937;56.096;12.664;2023-01-10T10:54:28;13.73;;;3.08;;
13731;SDS011;6937;56.096;12.664;2023-01-10T10:57:00;13.65;;;2.97;;
13731;SDS011;6937;56.096;12.664;2023-01-10T10:59:25;13.20;;;2.85;;
13731;SDS011;6937;56.096;12.664;2023-01-10T11:01:50;11.20;;;2.88;;
13731;SDS011;6937;56.096;12.664;2023-01-10T11:04:20;16.85;;;3.30;;
13731;SDS011;6937;56.096;12.664;2023-01-10T11:06:47;14.30;;;3.28;;
13731;SDS011;6937;56.096;12.664;2023-01-10T11:09:14;14.52;;;3.10;;
13731;SDS011;6937;56.096;12.664;2023-01-10T11:11:45;18.25;;;3.47;;
13731;SDS011;6937;56.096;12.664;2023-01-10T11:14:14;16.90;;;3.38;;
13731;SDS011;6937;56.096;12.664;2023-01-10T11:16:41;16.17;;;3.05;;
13731;SDS011;6937;56.096;12.664;2023-01-10T11:21:44;13.50;;;3.10;;
13731;SDS011;6937;56.096;12.664;2023-01-10T11:24:20;14.15;;;3.33;;
13731;SDS011;6937;56.096;12.664;2023-01-10T11:26:51;13.43;;;3.38;;
13731;SDS011;6937;56.096;12.664;2023-01-10T11:29:18;16.27;;;3.58;;
13731;SDS011;6937;56.096;12.664;2023-01-10T11:31:49;16.10;;;3.38;;
13731;SDS011;6937;56.096;12.664;2023-01-10T11:34:21;9.50;;;2.55;;
13731;SDS011;6937;56.096;12.664;2023-01-10T11:39:25;17.50;;;3.40;;
13731;SDS011;6937;56.096;12.664;2023-01-10T11:41:52;13.77;;;3.50;;
13731;SDS011;6937;56.096;12.664;2023-01-10T11:44:23;12.98;;;3.20;;
13731;SDS011;6937;56.096;12.664;2023-01-10T11:46:54;15.77;;;3.42;;
13731;SDS011;6937;56.096;12.664;2023-01-10T11:49:26;18.20;;;3.40;;
13731;SDS011;6937;56.096;12.664;2023-01-10T11:52:03;11.80;;;3.08;;
13731;SDS011;6937;56.096;12.664;2023-01-10T11:54:31;15.50;;;3.20;;
13731;SDS011;6937;56.096;12.664;2023-01-10T11:59:33;13.27;;;3.20;;
13731;SDS011;6937;56.096;12.664;2023-01-10T12:02:02;13.30;;;2.95;;
13731;SDS011;6937;56.096;12.664;2023-01-10T12:04:39;15.57;;;3.03;;
13731;SDS011;6937;56.096;12.664;2023-01-10T12:07:08;15.02;;;3.60;;
13731;SDS011;6937;56.096;12.664;2023-01-10T12:09:43;14.73;;;2.80;;
13731;SDS011;6937;56.096;12.664;2023-01-10T12:12:19;15.95;;;3.25;;
13731;SDS011;6937;56.096;12.664;2023-01-10T12:14:52;13.18;;;3.20;;
13731;SDS011;6937;56.096;12.664;2023-01-10T12:17:20;14.52;;;3.35;;
13731;SDS011;6937;56.096;12.664;2023-01-10T12:19:45;14.40;;;2.97;;
13731;SDS011;6937;56.096;12.664;2023-01-10T12:22:11;13.05;;;3.53;;
13731;SDS011;6937;56.096;12.664;2023-01-10T12:24:40;18.50;;;3.33;;
13731;SDS011;6937;56.096;12.664;2023-01-10T12:27:10;10.32;;;3.42;;
13731;SDS011;6937;56.096;12.664;2023-01-10T12:29:40;11.85;;;2.97;;
13731;SDS011;6937;56.096;12.664;2023-01-10T12:32:21;16.95;;;3.22;;
13731;SDS011;6937;56.096;12.664;2023-01-10T12:35:12;10.68;;;2.70;;
13731;SDS011;6937;56.096;12.664;2023-01-10T12:37:45;14.35;;;3.10;;
13731;SDS011;6937;56.096;12.664;2023-01-10T12:40:27;18.00;;;3.75;;
13731;SDS011;6937;56.096;12.664;2023-01-10T12:43:02;13.50;;;3.58;;
13731;SDS011;6937;56.096;12.664;2023-01-10T12:45:55;9.55;;;2.67;;
13731;SDS011;6937;56.096;12.664;2023-01-10T12:51:13;10.57;;;3.08;;
13731;SDS011;6937;56.096;12.664;2023-01-10T12:54:04;9.70;;;2.75;;
13731;SDS011;6937;56.096;12.664;2023-01-10T12:56:35;10.63;;;2.65;;
13731;SDS011;6937;56.096;12.664;2023-01-10T12:59:03;14.60;;;3.35;;
13731;SDS011;6937;56.096;12.664;2023-01-10T13:01:37;11.52;;;3.03;;
13731;SDS011;6937;56.096;12.664;2023-01-10T13:04:10;10.05;;;3.17;;
13731;SDS011;6937;56.096;12.664;2023-01-10T13:06:39;9.93;;;2.85;;
13731;SDS011;6937;56.096;12.664;2023-01-10T13:09:08;12.02;;;2.95;;
13731;SDS011;6937;56.096;12.664;2023-01-10T13:11:41;12.32;;;2.72;;
13731;SDS011;6937;56.096;12.664;2023-01-10T13:14:15;14.80;;;3.35;;
13731;SDS011;6937;56.096;12.664;2023-01-10T13:19:26;13.23;;;2.80;;
13731;SDS011;6937;56.096;12.664;2023-01-10T13:22:11;11.02;;;3.65;;
13731;SDS011;6937;56.096;12.664;2023-01-10T13:24:59;9.52;;;2.78;;
13731;SDS011;6937;56.096;12.664;2023-01-10T13:27:33;15.45;;;3.05;;
13731;SDS011;6937;56.096;12.664;2023-01-10T13:29:59;13.45;;;2.92;;
13731;SDS011;6937;56.096;12.664;2023-01-10T13:32:28;12.40;;;3.17;;
13731;SDS011;6937;56.096;12.664;2023-01-10T13:35:16;14.75;;;3.55;;
13731;SDS011;6937;56.096;12.664;2023-01-10T13:37:43;9.50;;;2.63;;
13731;SDS011;6937;56.096;12.664;2023-01-10T13:40:21;11.35;;;3.20;;
13731;SDS011;6937;56.096;12.664;2023-01-10T13:48:39;12.65;;;2.92;;
13731;SDS011;6937;56.096;12.664;2023-01-10T13:51:05;16.42;;;3.67;;
13731;SDS011;6937;56.096;12.664;2023-01-10T13:53:42;14.60;;;3.15;;
13731;SDS011;6937;56.096;12.664;2023-01-10T13:58:55;15.30;;;3.47;;
13731;SDS011;6937;56.096;12.664;2023-01-10T14:01:39;11.57;;;3.08;;
13731;SDS011;6937;56.096;12.664;2023-01-10T14:04:24;10.40;;;2.95;;
13731;SDS011;6937;56.096;12.664;2023-01-10T14:06:55;11.82;;;3.10;;
13731;SDS011;6937;56.096;12.664;2023-01-10T14:11:50;14.95;;;3.38;;
13731;SDS011;6937;56.096;12.664;2023-01-10T14:16:47;11.48;;;2.90;;
13731;SDS011;6937;56.096;12.664;2023-01-10T14:19:23;11.90;;;3.10;;
13731;SDS011;6937;56.096;12.664;2023-01-10T14:21:53;12.32;;;3.15;;
13731;SDS011;6937;56.096;12.664;2023-01-10T14:24:27;12.57;;;2.75;;
13731;SDS011;6937;56.096;12.664;2023-01-10T14:26:59;12.32;;;2.92;;
13731;SDS011;6937;56.096;12.664;2023-01-10T14:29:34;10.65;;;2.97;;
13731;SDS011;6937;56.096;12.664;2023-01-10T14:32:16;11.57;;;3.45;;
13731;SDS011;6937;56.096;12.664;2023-01-10T14:34:49;9.77;;;2.78;;
13731;SDS011;6937;56.096;12.664;2023-01-10T14:37:20;13.30;;;3.03;;
13731;SDS011;6937;56.096;12.664;2023-01-10T14:40:16;15.02;;;3.13;;
13731;SDS011;6937;56.096;12.664;2023-01-10T14:42:47;9.60;;;2.65;;
13731;SDS011;6937;56.096;12.664;2023-01-10T14:45:25;12.57;;;3.25;;
13731;SDS011;6937;56.096;12.664;2023-01-10T14:47:55;13.25;;;2.97;;
13731;SDS011;6937;56.096;12.664;2023-01-10T14:50:25;11.80;;;3.05;;
13731;SDS011;6937;56.096;12.664;2023-01-10T14:52:56;14.93;;;3.50;;
13731;SDS011;6937;56.096;12.664;2023-01-10T14:55:22;11.75;;;3.55;;
13731;SDS011;6937;56.096;12.664;2023-01-10T14:57:55;11.43;;;3.03;;
13731;SDS011;6937;56.096;12.664;2023-01-10T15:02:52;13.82;;;4.22;;
13731;SDS011;6937;56.096;12.664;2023-01-10T15:05:22;18.13;;;4.57;;
13731;SDS011;6937;56.096;12.664;2023-01-10T15:07:53;15.30;;;3.63;;
13731;SDS011;6937;56.096;12.664;2023-01-10T15:10:21;14.93;;;3.72;;
13731;SDS011;6937;56.096;12.664;2023-01-10T15:12:50;15.75;;;3.75;;
13731;SDS011;6937;56.096;12.664;2023-01-10T15:15:19;13.50;;;3.95;;
13731;SDS011;6937;56.096;12.664;2023-01-10T15:17:51;14.98;;;3.80;;
13731;SDS011;6937;56.096;12.664;2023-01-10T15:20:17;15.57;;;4.40;;
13731;SDS011;6937;56.096;12.664;2023-01-10T15:22:48;13.25;;;3.92;;
13731;SDS011;6937;56.096;12.664;2023-01-10T15:27:46;14.70;;;4.05;;
13731;SDS011;6937;56.096;12.664;2023-01-10T15:30:21;14.07;;;4.65;;
13731;SDS011;6937;56.096;12.664;2023-01-10T15:32:55;16.63;;;4.30;;
13731;SDS011;6937;56.096;12.664;2023-01-10T15:35:26;21.75;;;4.43;;
13731;SDS011;6937;56.096;12.664;2023-01-10T15:37:55;12.48;;;3.38;;
13731;SDS011;6937;56.096;12.664;2023-01-10T15:40:24;15.88;;;4.25;;
13731;SDS011;6937;56.096;12.664;2023-01-10T15:45:38;16.60;;;4.45;;
13731;SDS011;6937;56.096;12.664;2023-01-10T15:48:19;16.67;;;4.13;;
13731;SDS011;6937;56.096;12.664;2023-01-10T15:50:58;14.93;;;4.05;;
13731;SDS011;6937;56.096;12.664;2023-01-10T15:56:16;14.70;;;4.65;;
13731;SDS011;6937;56.096;12.664;2023-01-10T15:58:49;16.55;;;4.10;;
13731;SDS011;6937;56.096;12.664;2023-01-10T16:01:15;16.90;;;4.32;;
13731;SDS011;6937;56.096;12.664;2023-01-10T16:03:44;16.05;;;4.72;;
13731;SDS011;6937;56.096;12.664;2023-01-10T16:06:18;20.08;;;5.57;;
13731;SDS011;6937;56.096;12.664;2023-01-10T16:08:50;18.77;;;6.10;;
13731;SDS011;6937;56.096;12.664;2023-01-10T16:11:20;17.00;;;5.93;;
13731;SDS011;6937;56.096;12.664;2023-01-10T16:14:07;18.67;;;7.00;;
13731;SDS011;6937;56.096;12.664;2023-01-10T16:16:33;17.25;;;6.43;;
13731;SDS011;6937;56.096;12.664;2023-01-10T16:18:58;18.55;;;7.28;;